aviador You're here:

KSMQ Decoded Metar

SOMERVILLE in NJ, USA
Report Time2017-11-24 23:53:00
UTC Time2017-11-25 00:22:00
Flight Rules vfr VFR
WindCalm
Visibility9999 m
Phenomena:N/A
Clouds:N/A
Expected CloudBase > 2,400 ft AGL from Temp-Dew spread
CeilingNone
Temp02°C (ISA -13)
Dew Point-4°C (65% RH)
AAT-0.5°C
QNH1015 hPa
Density Alt-1,463 ft
Elevation98 ft
Report Wrong Elevation
Raw Report
METAR KSMQ 242353Z AUTO 00000KT 10SM CLR 02/M04 A2996 RMK AO2 SLP147
T00221044 10117 20022 52005=

Extra information for KSMQ:More info

Metar Taf Metar & Taf Last 4 Metars F.Rules Stats Wind Profile Meteogram Temp Stats Airport Information Weather charts Add Link Nearby VenuesMetar ALERT Operation Metar Decoded Social comments

AIRNAV info for KSMQ